sensor_id;sensor_type;location;lat;lon;timestamp;P1;durP1;ratioP1;P2;durP2;ratioP2
18013;SDS011;9132;47.946;10.394;2024-02-21T00:02:18;7.93;;;2.60;;
18013;SDS011;9132;47.946;10.394;2024-02-21T00:04:45;4.63;;;2.63;;
18013;SDS011;9132;47.946;10.394;2024-02-21T00:07:13;4.37;;;2.73;;
18013;SDS011;9132;47.946;10.394;2024-02-21T00:09:39;6.63;;;3.27;;
18013;SDS011;9132;47.946;10.394;2024-02-21T00:12:06;5.50;;;3.17;;
18013;SDS011;9132;47.946;10.394;2024-02-21T00:14:33;4.33;;;2.70;;
18013;SDS011;9132;47.946;10.394;2024-02-21T00:17:00;5.37;;;3.23;;
18013;SDS011;9132;47.946;10.394;2024-02-21T00:19:26;5.67;;;3.23;;
18013;SDS011;9132;47.946;10.394;2024-02-21T00:21:53;4.63;;;2.90;;
18013;SDS011;9132;47.946;10.394;2024-02-21T00:24:21;5.63;;;3.13;;
18013;SDS011;9132;47.946;10.394;2024-02-21T00:26:47;5.40;;;2.97;;
18013;SDS011;9132;47.946;10.394;2024-02-21T00:29:14;7.40;;;3.20;;
18013;SDS011;9132;47.946;10.394;2024-02-21T00:31:41;4.83;;;2.73;;
18013;SDS011;9132;47.946;10.394;2024-02-21T00:34:09;5.80;;;3.20;;
18013;SDS011;9132;47.946;10.394;2024-02-21T00:36:37;6.07;;;2.93;;
18013;SDS011;9132;47.946;10.394;2024-02-21T00:39:04;5.30;;;2.80;;
18013;SDS011;9132;47.946;10.394;2024-02-21T00:41:32;4.60;;;2.73;;
18013;SDS011;9132;47.946;10.394;2024-02-21T00:43:59;4.20;;;2.20;;
18013;SDS011;9132;47.946;10.394;2024-02-21T00:46:25;3.93;;;2.63;;
18013;SDS011;9132;47.946;10.394;2024-02-21T00:48:52;5.30;;;2.37;;
18013;SDS011;9132;47.946;10.394;2024-02-21T00:51:18;5.00;;;2.80;;
18013;SDS011;9132;47.946;10.394;2024-02-21T00:53:45;5.20;;;2.53;;
18013;SDS011;9132;47.946;10.394;2024-02-21T00:56:11;5.00;;;2.20;;
18013;SDS011;9132;47.946;10.394;2024-02-21T00:58:39;3.43;;;2.00;;
18013;SDS011;9132;47.946;10.394;2024-02-21T01:01:06;2.73;;;2.07;;
18013;SDS011;9132;47.946;10.394;2024-02-21T01:03:32;4.67;;;2.53;;
18013;SDS011;9132;47.946;10.394;2024-02-21T01:05:59;2.90;;;1.97;;
18013;SDS011;9132;47.946;10.394;2024-02-21T01:08:26;3.87;;;1.70;;
18013;SDS011;9132;47.946;10.394;2024-02-21T01:10:52;3.20;;;1.93;;
18013;SDS011;9132;47.946;10.394;2024-02-21T01:13:19;2.77;;;1.80;;
18013;SDS011;9132;47.946;10.394;2024-02-21T01:15:47;4.73;;;1.80;;
18013;SDS011;9132;47.946;10.394;2024-02-21T01:18:13;4.47;;;1.93;;
18013;SDS011;9132;47.946;10.394;2024-02-21T01:20:40;4.87;;;2.07;;
18013;SDS011;9132;47.946;10.394;2024-02-21T01:23:06;4.43;;;2.00;;
18013;SDS011;9132;47.946;10.394;2024-02-21T01:25:33;2.93;;;1.67;;
18013;SDS011;9132;47.946;10.394;2024-02-21T01:28:00;4.80;;;2.33;;
18013;SDS011;9132;47.946;10.394;2024-02-21T01:30:26;3.40;;;1.97;;
18013;SDS011;9132;47.946;10.394;2024-02-21T01:32:54;2.70;;;1.93;;
18013;SDS011;9132;47.946;10.394;2024-02-21T01:35:21;5.27;;;1.90;;
18013;SDS011;9132;47.946;10.394;2024-02-21T01:37:47;4.20;;;2.13;;
18013;SDS011;9132;47.946;10.394;2024-02-21T01:40:14;2.53;;;1.83;;
18013;SDS011;9132;47.946;10.394;2024-02-21T01:42:41;6.17;;;2.20;;
18013;SDS011;9132;47.946;10.394;2024-02-21T01:45:08;7.27;;;2.00;;
18013;SDS011;9132;47.946;10.394;2024-02-21T01:47:35;2.90;;;1.77;;
18013;SDS011;9132;47.946;10.394;2024-02-21T01:50:04;3.00;;;1.70;;
18013;SDS011;9132;47.946;10.394;2024-02-21T01:52:32;5.77;;;1.80;;
18013;SDS011;9132;47.946;10.394;2024-02-21T01:55:00;2.53;;;1.57;;
18013;SDS011;9132;47.946;10.394;2024-02-21T01:57:29;4.27;;;1.90;;
18013;SDS011;9132;47.946;10.394;2024-02-21T01:59:56;1.90;;;1.70;;
18013;SDS011;9132;47.946;10.394;2024-02-21T02:02:22;3.13;;;1.93;;
18013;SDS011;9132;47.946;10.394;2024-02-21T02:04:50;2.47;;;1.70;;
18013;SDS011;9132;47.946;10.394;2024-02-21T02:07:19;4.23;;;1.70;;
18013;SDS011;9132;47.946;10.394;2024-02-21T02:09:45;2.20;;;1.50;;
18013;SDS011;9132;47.946;10.394;2024-02-21T02:12:12;3.83;;;1.60;;
18013;SDS011;9132;47.946;10.394;2024-02-21T02:14:38;2.57;;;1.63;;
18013;SDS011;9132;47.946;10.394;2024-02-21T02:17:05;4.97;;;1.80;;
18013;SDS011;9132;47.946;10.394;2024-02-21T02:19:32;2.93;;;1.83;;
18013;SDS011;9132;47.946;10.394;2024-02-21T02:21:59;5.30;;;1.80;;
18013;SDS011;9132;47.946;10.394;2024-02-21T02:24:33;3.10;;;1.77;;
18013;SDS011;9132;47.946;10.394;2024-02-21T02:26:59;3.07;;;1.77;;
18013;SDS011;9132;47.946;10.394;2024-02-21T02:29:26;4.00;;;1.40;;
18013;SDS011;9132;47.946;10.394;2024-02-21T02:31:53;3.57;;;1.57;;
18013;SDS011;9132;47.946;10.394;2024-02-21T02:34:19;2.73;;;1.50;;
18013;SDS011;9132;47.946;10.394;2024-02-21T02:36:46;3.33;;;1.43;;
18013;SDS011;9132;47.946;10.394;2024-02-21T02:39:14;2.63;;;1.37;;
18013;SDS011;9132;47.946;10.394;2024-02-21T02:41:42;3.70;;;1.40;;
18013;SDS011;9132;47.946;10.394;2024-02-21T02:44:08;2.50;;;1.33;;
18013;SDS011;9132;47.946;10.394;2024-02-21T02:46:35;2.90;;;1.40;;
18013;SDS011;9132;47.946;10.394;2024-02-21T02:49:01;3.50;;;1.37;;
18013;SDS011;9132;47.946;10.394;2024-02-21T02:51:28;2.80;;;1.20;;
18013;SDS011;9132;47.946;10.394;2024-02-21T02:53:55;1.93;;;1.40;;
18013;SDS011;9132;47.946;10.394;2024-02-21T02:56:22;2.27;;;1.50;;
18013;SDS011;9132;47.946;10.394;2024-02-21T02:58:50;2.63;;;1.47;;
18013;SDS011;9132;47.946;10.394;2024-02-21T03:01:16;2.67;;;1.20;;
18013;SDS011;9132;47.946;10.394;2024-02-21T03:03:43;3.53;;;1.13;;
18013;SDS011;9132;47.946;10.394;2024-02-21T03:06:10;2.57;;;1.20;;
18013;SDS011;9132;47.946;10.394;2024-02-21T03:08:37;1.60;;;1.10;;
18013;SDS011;9132;47.946;10.394;2024-02-21T03:11:05;3.57;;;1.40;;
18013;SDS011;9132;47.946;10.394;2024-02-21T03:13:31;1.87;;;1.00;;
18013;SDS011;9132;47.946;10.394;2024-02-21T03:15:59;3.40;;;1.33;;
18013;SDS011;9132;47.946;10.394;2024-02-21T03:18:26;1.93;;;1.10;;
18013;SDS011;9132;47.946;10.394;2024-02-21T03:20:52;2.57;;;1.30;;
18013;SDS011;9132;47.946;10.394;2024-02-21T03:23:19;1.47;;;1.10;;
18013;SDS011;9132;47.946;10.394;2024-02-21T03:25:45;3.40;;;1.20;;
18013;SDS011;9132;47.946;10.394;2024-02-21T03:28:12;2.37;;;1.17;;
18013;SDS011;9132;47.946;10.394;2024-02-21T03:30:39;3.60;;;1.20;;
18013;SDS011;9132;47.946;10.394;2024-02-21T03:33:07;1.87;;;1.37;;
18013;SDS011;9132;47.946;10.394;2024-02-21T03:35:33;2.90;;;1.20;;
18013;SDS011;9132;47.946;10.394;2024-02-21T03:38:00;3.23;;;1.40;;
18013;SDS011;9132;47.946;10.394;2024-02-21T03:40:26;2.50;;;1.10;;
18013;SDS011;9132;47.946;10.394;2024-02-21T03:42:53;2.77;;;1.17;;
18013;SDS011;9132;47.946;10.394;2024-02-21T03:45:19;1.80;;;1.20;;
18013;SDS011;9132;47.946;10.394;2024-02-21T03:47:46;1.73;;;0.97;;
18013;SDS011;9132;47.946;10.394;2024-02-21T03:50:14;2.60;;;1.10;;
18013;SDS011;9132;47.946;10.394;2024-02-21T03:52:40;1.77;;;1.00;;
18013;SDS011;9132;47.946;10.394;2024-02-21T03:55:07;2.57;;;1.03;;
18013;SDS011;9132;47.946;10.394;2024-02-21T03:57:34;5.50;;;1.43;;
18013;SDS011;9132;47.946;10.394;2024-02-21T04:00:01;1.10;;;1.00;;
18013;SDS011;9132;47.946;10.394;2024-02-21T04:02:28;1.20;;;1.10;;
18013;SDS011;9132;47.946;10.394;2024-02-21T04:04:55;1.93;;;1.37;;
18013;SDS011;9132;47.946;10.394;2024-02-21T04:07:23;1.47;;;1.10;;
18013;SDS011;9132;47.946;10.394;2024-02-21T04:09:49;1.87;;;1.10;;
18013;SDS011;9132;47.946;10.394;2024-02-21T04:12:16;3.10;;;1.30;;
18013;SDS011;9132;47.946;10.394;2024-02-21T04:14:42;1.33;;;1.20;;
18013;SDS011;9132;47.946;10.394;2024-02-21T04:17:09;1.20;;;0.93;;
18013;SDS011;9132;47.946;10.394;2024-02-21T04:19:35;1.30;;;0.93;;
18013;SDS011;9132;47.946;10.394;2024-02-21T04:22:02;4.13;;;1.00;;
18013;SDS011;9132;47.946;10.394;2024-02-21T04:24:30;1.57;;;1.00;;
18013;SDS011;9132;47.946;10.394;2024-02-21T04:26:56;0.80;;;0.80;;
18013;SDS011;9132;47.946;10.394;2024-02-21T04:29:23;0.93;;;0.80;;
18013;SDS011;9132;47.946;10.394;2024-02-21T04:31:49;1.20;;;1.00;;
18013;SDS011;9132;47.946;10.394;2024-02-21T04:34:16;1.07;;;0.97;;
18013;SDS011;9132;47.946;10.394;2024-02-21T04:36:43;1.27;;;1.10;;
18013;SDS011;9132;47.946;10.394;2024-02-21T04:39:09;1.97;;;0.90;;
18013;SDS011;9132;47.946;10.394;2024-02-21T04:41:37;1.93;;;1.00;;
18013;SDS011;9132;47.946;10.394;2024-02-21T04:44:04;2.50;;;1.00;;
18013;SDS011;9132;47.946;10.394;2024-02-21T04:46:31;0.80;;;0.80;;
18013;SDS011;9132;47.946;10.394;2024-02-21T04:48:57;2.00;;;0.90;;
18013;SDS011;9132;47.946;10.394;2024-02-21T04:51:24;1.13;;;0.90;;
18013;SDS011;9132;47.946;10.394;2024-02-21T04:53:50;1.97;;;0.93;;
18013;SDS011;9132;47.946;10.394;2024-02-21T04:56:17;2.17;;;0.90;;
18013;SDS011;9132;47.946;10.394;2024-02-21T04:58:45;1.20;;;0.97;;
18013;SDS011;9132;47.946;10.394;2024-02-21T05:01:12;2.90;;;1.00;;
18013;SDS011;9132;47.946;10.394;2024-02-21T05:03:38;1.73;;;0.80;;
18013;SDS011;9132;47.946;10.394;2024-02-21T05:06:05;1.30;;;0.83;;
18013;SDS011;9132;47.946;10.394;2024-02-21T05:08:32;1.93;;;1.10;;
18013;SDS011;9132;47.946;10.394;2024-02-21T05:10:59;1.77;;;0.93;;
18013;SDS011;9132;47.946;10.394;2024-02-21T05:13:25;2.80;;;1.17;;
18013;SDS011;9132;47.946;10.394;2024-02-21T05:15:53;1.53;;;0.90;;
18013;SDS011;9132;47.946;10.394;2024-02-21T05:18:20;2.90;;;1.03;;
18013;SDS011;9132;47.946;10.394;2024-02-21T05:20:46;2.23;;;0.90;;
18013;SDS011;9132;47.946;10.394;2024-02-21T05:23:13;3.63;;;1.00;;
18013;SDS011;9132;47.946;10.394;2024-02-21T05:25:40;1.27;;;0.80;;
18013;SDS011;9132;47.946;10.394;2024-02-21T05:28:06;1.40;;;0.60;;
18013;SDS011;9132;47.946;10.394;2024-02-21T05:30:33;1.53;;;1.00;;
18013;SDS011;9132;47.946;10.394;2024-02-21T05:33:03;1.90;;;0.73;;
18013;SDS011;9132;47.946;10.394;2024-02-21T05:35:30;2.73;;;0.80;;
18013;SDS011;9132;47.946;10.394;2024-02-21T05:37:57;0.80;;;0.60;;
18013;SDS011;9132;47.946;10.394;2024-02-21T05:40:24;2.93;;;0.80;;
18013;SDS011;9132;47.946;10.394;2024-02-21T05:42:51;2.50;;;1.10;;
18013;SDS011;9132;47.946;10.394;2024-02-21T05:45:18;0.70;;;0.70;;
18013;SDS011;9132;47.946;10.394;2024-02-21T05:47:44;1.00;;;0.80;;
18013;SDS011;9132;47.946;10.394;2024-02-21T05:50:12;1.17;;;0.60;;
18013;SDS011;9132;47.946;10.394;2024-02-21T05:52:39;2.13;;;0.80;;
18013;SDS011;9132;47.946;10.394;2024-02-21T05:55:06;1.83;;;0.90;;
18013;SDS011;9132;47.946;10.394;2024-02-21T05:57:33;1.23;;;0.70;;
18013;SDS011;9132;47.946;10.394;2024-02-21T06:00:01;1.00;;;0.70;;
18013;SDS011;9132;47.946;10.394;2024-02-21T06:02:30;1.63;;;0.80;;
18013;SDS011;9132;47.946;10.394;2024-02-21T06:04:56;3.63;;;0.80;;
18013;SDS011;9132;47.946;10.394;2024-02-21T06:07:24;1.40;;;0.93;;
18013;SDS011;9132;47.946;10.394;2024-02-21T06:09:51;1.53;;;1.00;;
18013;SDS011;9132;47.946;10.394;2024-02-21T06:12:17;2.50;;;1.20;;
18013;SDS011;9132;47.946;10.394;2024-02-21T06:14:44;2.67;;;1.33;;
18013;SDS011;9132;47.946;10.394;2024-02-21T06:17:11;1.93;;;0.97;;
18013;SDS011;9132;47.946;10.394;2024-02-21T06:19:39;1.13;;;0.80;;
18013;SDS011;9132;47.946;10.394;2024-02-21T06:22:06;0.97;;;0.77;;
18013;SDS011;9132;47.946;10.394;2024-02-21T06:24:34;0.80;;;0.80;;
18013;SDS011;9132;47.946;10.394;2024-02-21T06:27:01;2.60;;;0.90;;
18013;SDS011;9132;47.946;10.394;2024-02-21T06:29:28;0.77;;;0.77;;
18013;SDS011;9132;47.946;10.394;2024-02-21T06:31:54;2.07;;;0.80;;
18013;SDS011;9132;47.946;10.394;2024-02-21T06:34:21;2.80;;;0.90;;
18013;SDS011;9132;47.946;10.394;2024-02-21T06:36:47;1.57;;;0.90;;
18013;SDS011;9132;47.946;10.394;2024-02-21T06:39:14;1.43;;;0.83;;
18013;SDS011;9132;47.946;10.394;2024-02-21T06:41:42;1.90;;;0.70;;
18013;SDS011;9132;47.946;10.394;2024-02-21T06:44:08;0.70;;;0.70;;
18013;SDS011;9132;47.946;10.394;2024-02-21T06:46:35;1.37;;;0.70;;
18013;SDS011;9132;47.946;10.394;2024-02-21T06:49:02;1.77;;;1.00;;
18013;SDS011;9132;47.946;10.394;2024-02-21T06:51:29;1.33;;;0.90;;
18013;SDS011;9132;47.946;10.394;2024-02-21T06:53:55;1.63;;;1.10;;
18013;SDS011;9132;47.946;10.394;2024-02-21T06:56:23;1.23;;;1.00;;
18013;SDS011;9132;47.946;10.394;2024-02-21T06:58:53;3.13;;;0.90;;
18013;SDS011;9132;47.946;10.394;2024-02-21T07:01:19;1.23;;;0.73;;
18013;SDS011;9132;47.946;10.394;2024-02-21T07:03:46;1.03;;;0.80;;
18013;SDS011;9132;47.946;10.394;2024-02-21T07:06:12;1.10;;;0.90;;
18013;SDS011;9132;47.946;10.394;2024-02-21T07:08:39;1.67;;;0.93;;
18013;SDS011;9132;47.946;10.394;2024-02-21T07:11:06;4.10;;;1.27;;
18013;SDS011;9132;47.946;10.394;2024-02-21T07:13:32;1.87;;;0.80;;
18013;SDS011;9132;47.946;10.394;2024-02-21T07:16:00;2.43;;;1.20;;
18013;SDS011;9132;47.946;10.394;2024-02-21T07:18:27;1.10;;;1.00;;
18013;SDS011;9132;47.946;10.394;2024-02-21T07:20:53;0.77;;;0.70;;
18013;SDS011;9132;47.946;10.394;2024-02-21T07:23:20;1.00;;;0.90;;
18013;SDS011;9132;47.946;10.394;2024-02-21T07:25:47;1.57;;;0.90;;
18013;SDS011;9132;47.946;10.394;2024-02-21T07:28:13;2.27;;;1.13;;
18013;SDS011;9132;47.946;10.394;2024-02-21T07:30:41;1.00;;;0.90;;
18013;SDS011;9132;47.946;10.394;2024-02-21T07:33:09;1.30;;;0.90;;
18013;SDS011;9132;47.946;10.394;2024-02-21T07:35:36;0.77;;;0.77;;
18013;SDS011;9132;47.946;10.394;2024-02-21T07:38:03;1.60;;;0.80;;
18013;SDS011;9132;47.946;10.394;2024-02-21T07:40:30;2.67;;;1.17;;
18013;SDS011;9132;47.946;10.394;2024-02-21T07:42:56;1.20;;;0.70;;
18013;SDS011;9132;47.946;10.394;2024-02-21T07:45:23;1.60;;;0.90;;
18013;SDS011;9132;47.946;10.394;2024-02-21T07:47:49;1.73;;;0.90;;
18013;SDS011;9132;47.946;10.394;2024-02-21T07:50:18;1.13;;;0.73;;
18013;SDS011;9132;47.946;10.394;2024-02-21T07:52:44;2.20;;;0.70;;
18013;SDS011;9132;47.946;10.394;2024-02-21T07:55:11;1.20;;;0.80;;
18013;SDS011;9132;47.946;10.394;2024-02-21T07:57:37;2.00;;;0.80;;
18013;SDS011;9132;47.946;10.394;2024-02-21T08:00:04;0.70;;;0.60;;
18013;SDS011;9132;47.946;10.394;2024-02-21T08:02:34;1.23;;;0.90;;
18013;SDS011;9132;47.946;10.394;2024-02-21T08:05:02;0.90;;;0.70;;
18013;SDS011;9132;47.946;10.394;2024-02-21T08:07:30;1.57;;;0.70;;
18013;SDS011;9132;47.946;10.394;2024-02-21T08:09:56;0.70;;;0.50;;
18013;SDS011;9132;47.946;10.394;2024-02-21T08:12:23;1.23;;;0.77;;
18013;SDS011;9132;47.946;10.394;2024-02-21T08:14:49;2.17;;;0.97;;
18013;SDS011;9132;47.946;10.394;2024-02-21T08:17:16;1.00;;;0.83;;
18013;SDS011;9132;47.946;10.394;2024-02-21T08:19:42;1.20;;;0.80;;
18013;SDS011;9132;47.946;10.394;2024-02-21T08:22:09;0.80;;;0.80;;
18013;SDS011;9132;47.946;10.394;2024-02-21T08:24:37;0.70;;;0.70;;
18013;SDS011;9132;47.946;10.394;2024-02-21T08:27:04;1.67;;;0.90;;
18013;SDS011;9132;47.946;10.394;2024-02-21T08:29:31;1.10;;;0.97;;
18013;SDS011;9132;47.946;10.394;2024-02-21T08:31:57;1.00;;;0.90;;
18013;SDS011;9132;47.946;10.394;2024-02-21T08:34:24;2.03;;;0.90;;
18013;SDS011;9132;47.946;10.394;2024-02-21T08:36:50;0.83;;;0.60;;
18013;SDS011;9132;47.946;10.394;2024-02-21T08:39:17;1.00;;;0.80;;
18013;SDS011;9132;47.946;10.394;2024-02-21T08:41:45;1.13;;;0.60;;
18013;SDS011;9132;47.946;10.394;2024-02-21T08:44:11;0.63;;;0.57;;
18013;SDS011;9132;47.946;10.394;2024-02-21T08:46:38;0.60;;;0.60;;
18013;SDS011;9132;47.946;10.394;2024-02-21T08:49:05;0.60;;;0.60;;
18013;SDS011;9132;47.946;10.394;2024-02-21T08:51:32;0.57;;;0.53;;
18013;SDS011;9132;47.946;10.394;2024-02-21T08:53:58;0.47;;;0.47;;
18013;SDS011;9132;47.946;10.394;2024-02-21T08:56:26;0.93;;;0.43;;
18013;SDS011;9132;47.946;10.394;2024-02-21T08:58:54;0.50;;;0.50;;
18013;SDS011;9132;47.946;10.394;2024-02-21T09:01:20;1.63;;;0.43;;
18013;SDS011;9132;47.946;10.394;2024-02-21T09:03:47;0.50;;;0.50;;
18013;SDS011;9132;47.946;10.394;2024-02-21T09:06:17;0.40;;;0.40;;
18013;SDS011;9132;47.946;10.394;2024-02-21T09:08:44;0.60;;;0.50;;
18013;SDS011;9132;47.946;10.394;2024-02-21T09:11:11;1.13;;;0.30;;
18013;SDS011;9132;47.946;10.394;2024-02-21T09:13:38;1.60;;;0.43;;
18013;SDS011;9132;47.946;10.394;2024-02-21T09:16:06;1.27;;;0.40;;
18013;SDS011;9132;47.946;10.394;2024-02-21T09:18:34;0.40;;;0.20;;
18013;SDS011;9132;47.946;10.394;2024-02-21T09:21:00;0.57;;;0.40;;
18013;SDS011;9132;47.946;10.394;2024-02-21T09:23:27;0.73;;;0.37;;
18013;SDS011;9132;47.946;10.394;2024-02-21T09:25:53;0.37;;;0.30;;
18013;SDS011;9132;47.946;10.394;2024-02-21T09:28:20;0.90;;;0.50;;
18013;SDS011;9132;47.946;10.394;2024-02-21T09:30:47;0.43;;;0.40;;
18013;SDS011;9132;47.946;10.394;2024-02-21T09:33:15;0.30;;;0.30;;
18013;SDS011;9132;47.946;10.394;2024-02-21T09:35:42;0.73;;;0.50;;
18013;SDS011;9132;47.946;10.394;2024-02-21T09:38:08;0.60;;;0.40;;
18013;SDS011;9132;47.946;10.394;2024-02-21T09:40:35;0.50;;;0.30;;
18013;SDS011;9132;47.946;10.394;2024-02-21T09:43:04;0.70;;;0.60;;
18013;SDS011;9132;47.946;10.394;2024-02-21T09:45:31;1.70;;;0.40;;
18013;SDS011;9132;47.946;10.394;2024-02-21T09:48:03;0.47;;;0.40;;
18013;SDS011;9132;47.946;10.394;2024-02-21T09:50:43;0.50;;;0.40;;
18013;SDS011;9132;47.946;10.394;2024-02-21T09:53:12;0.53;;;0.53;;
18013;SDS011;9132;47.946;10.394;2024-02-21T09:55:39;0.67;;;0.30;;
18013;SDS011;9132;47.946;10.394;2024-02-21T09:58:07;1.00;;;0.40;;
18013;SDS011;9132;47.946;10.394;2024-02-21T10:00:34;1.17;;;0.50;;
18013;SDS011;9132;47.946;10.394;2024-02-21T10:03:01;0.40;;;0.40;;
18013;SDS011;9132;47.946;10.394;2024-02-21T10:05:32;2.87;;;0.50;;
18013;SDS011;9132;47.946;10.394;2024-02-21T10:08:00;0.43;;;0.40;;
18013;SDS011;9132;47.946;10.394;2024-02-21T10:10:27;0.40;;;0.40;;
18013;SDS011;9132;47.946;10.394;2024-02-21T10:12:55;0.40;;;0.40;;
18013;SDS011;9132;47.946;10.394;2024-02-21T10:15:23;0.40;;;0.40;;
18013;SDS011;9132;47.946;10.394;2024-02-21T10:17:57;0.53;;;0.40;;
18013;SDS011;9132;47.946;10.394;2024-02-21T10:20:25;1.13;;;0.40;;
18013;SDS011;9132;47.946;10.394;2024-02-21T10:23:01;0.67;;;0.43;;
18013;SDS011;9132;47.946;10.394;2024-02-21T10:25:28;1.07;;;0.60;;
18013;SDS011;9132;47.946;10.394;2024-02-21T10:27:56;0.20;;;0.20;;
18013;SDS011;9132;47.946;10.394;2024-02-21T10:30:23;2.00;;;0.40;;
18013;SDS011;9132;47.946;10.394;2024-02-21T10:32:49;3.60;;;0.50;;
18013;SDS011;9132;47.946;10.394;2024-02-21T10:35:25;0.67;;;0.40;;
18013;SDS011;9132;47.946;10.394;2024-02-21T10:37:52;0.63;;;0.40;;
18013;SDS011;9132;47.946;10.394;2024-02-21T10:40:22;0.57;;;0.50;;
18013;SDS011;9132;47.946;10.394;2024-02-21T10:42:50;0.40;;;0.30;;
18013;SDS011;9132;47.946;10.394;2024-02-21T10:45:23;0.53;;;0.40;;
18013;SDS011;9132;47.946;10.394;2024-02-21T10:47:55;0.60;;;0.40;;
18013;SDS011;9132;47.946;10.394;2024-02-21T10:50:26;0.50;;;0.30;;
18013;SDS011;9132;47.946;10.394;2024-02-21T10:53:01;0.90;;;0.40;;
18013;SDS011;9132;47.946;10.394;2024-02-21T10:55:38;0.40;;;0.40;;
18013;SDS011;9132;47.946;10.394;2024-02-21T10:58:07;0.77;;;0.30;;
18013;SDS011;9132;47.946;10.394;2024-02-21T11:00:36;1.07;;;0.30;;
18013;SDS011;9132;47.946;10.394;2024-02-21T11:03:03;0.27;;;0.20;;
18013;SDS011;9132;47.946;10.394;2024-02-21T11:05:31;0.30;;;0.30;;
18013;SDS011;9132;47.946;10.394;2024-02-21T11:07:59;0.40;;;0.40;;
18013;SDS011;9132;47.946;10.394;2024-02-21T11:10:26;0.60;;;0.40;;
18013;SDS011;9132;47.946;10.394;2024-02-21T11:12:54;0.40;;;0.37;;
18013;SDS011;9132;47.946;10.394;2024-02-21T11:15:32;0.53;;;0.20;;
18013;SDS011;9132;47.946;10.394;2024-02-21T11:17:59;1.03;;;0.50;;
18013;SDS011;9132;47.946;10.394;2024-02-21T11:20:31;0.37;;;0.30;;
18013;SDS011;9132;47.946;10.394;2024-02-21T11:22:59;0.23;;;0.20;;
18013;SDS011;9132;47.946;10.394;2024-02-21T11:25:26;0.60;;;0.30;;
18013;SDS011;9132;47.946;10.394;2024-02-21T11:28:00;1.57;;;0.27;;
18013;SDS011;9132;47.946;10.394;2024-02-21T11:30:27;0.63;;;0.37;;
18013;SDS011;9132;47.946;10.394;2024-02-21T11:33:00;0.20;;;0.20;;
18013;SDS011;9132;47.946;10.394;2024-02-21T11:35:30;0.30;;;0.30;;
18013;SDS011;9132;47.946;10.394;2024-02-21T11:38:07;1.60;;;0.40;;
18013;SDS011;9132;47.946;10.394;2024-02-21T11:40:35;0.30;;;0.30;;
18013;SDS011;9132;47.946;10.394;2024-02-21T11:43:03;0.27;;;0.27;;
18013;SDS011;9132;47.946;10.394;2024-02-21T11:45:30;0.37;;;0.37;;
18013;SDS011;9132;47.946;10.394;2024-02-21T11:47:58;1.60;;;0.50;;
18013;SDS011;9132;47.946;10.394;2024-02-21T11:50:28;0.30;;;0.30;;
18013;SDS011;9132;47.946;10.394;2024-02-21T11:52:55;1.20;;;0.47;;
18013;SDS011;9132;47.946;10.394;2024-02-21T11:55:22;0.30;;;0.20;;
18013;SDS011;9132;47.946;10.394;2024-02-21T11:57:48;0.50;;;0.50;;
18013;SDS011;9132;47.946;10.394;2024-02-21T12:00:17;0.43;;;0.40;;
18013;SDS011;9132;47.946;10.394;2024-02-21T12:02:46;0.80;;;0.43;;
18013;SDS011;9132;47.946;10.394;2024-02-21T12:05:13;0.60;;;0.40;;
18013;SDS011;9132;47.946;10.394;2024-02-21T12:07:40;0.40;;;0.30;;
18013;SDS011;9132;47.946;10.394;2024-02-21T12:10:07;0.47;;;0.37;;
18013;SDS011;9132;47.946;10.394;2024-02-21T12:12:35;0.30;;;0.23;;
18013;SDS011;9132;47.946;10.394;2024-02-21T12:15:03;0.83;;;0.20;;
18013;SDS011;9132;47.946;10.394;2024-02-21T12:17:32;0.40;;;0.40;;
18013;SDS011;9132;47.946;10.394;2024-02-21T12:19:58;0.20;;;0.20;;
18013;SDS011;9132;47.946;10.394;2024-02-21T12:22:25;0.27;;;0.27;;
18013;SDS011;9132;47.946;10.394;2024-02-21T12:24:53;0.47;;;0.30;;
18013;SDS011;9132;47.946;10.394;2024-02-21T12:27:19;0.40;;;0.40;;
18013;SDS011;9132;47.946;10.394;2024-02-21T12:29:47;0.30;;;0.20;;
18013;SDS011;9132;47.946;10.394;2024-02-21T12:32:13;0.60;;;0.30;;
18013;SDS011;9132;47.946;10.394;2024-02-21T12:34:41;0.90;;;0.50;;
18013;SDS011;9132;47.946;10.394;2024-02-21T12:37:08;1.90;;;0.33;;
18013;SDS011;9132;47.946;10.394;2024-02-21T12:39:34;0.73;;;0.40;;
18013;SDS011;9132;47.946;10.394;2024-02-21T12:42:03;0.47;;;0.40;;
18013;SDS011;9132;47.946;10.394;2024-02-21T12:44:30;1.00;;;0.40;;
18013;SDS011;9132;47.946;10.394;2024-02-21T12:46:57;0.50;;;0.50;;
18013;SDS011;9132;47.946;10.394;2024-02-21T12:49:23;0.20;;;0.20;;
18013;SDS011;9132;47.946;10.394;2024-02-21T12:51:53;0.30;;;0.30;;
18013;SDS011;9132;47.946;10.394;2024-02-21T12:54:20;0.53;;;0.40;;
18013;SDS011;9132;47.946;10.394;2024-02-21T12:56:47;1.00;;;0.37;;
18013;SDS011;9132;47.946;10.394;2024-02-21T12:59:15;0.30;;;0.30;;
18013;SDS011;9132;47.946;10.394;2024-02-21T13:01:42;0.80;;;0.50;;
18013;SDS011;9132;47.946;10.394;2024-02-21T13:04:08;0.50;;;0.40;;
18013;SDS011;9132;47.946;10.394;2024-02-21T13:06:36;0.80;;;0.40;;
18013;SDS011;9132;47.946;10.394;2024-02-21T13:09:04;0.23;;;0.23;;
18013;SDS011;9132;47.946;10.394;2024-02-21T13:11:35;0.20;;;0.20;;
18013;SDS011;9132;47.946;10.394;2024-02-21T13:14:02;3.00;;;0.50;;
18013;SDS011;9132;47.946;10.394;2024-02-21T13:16:29;0.50;;;0.30;;
18013;SDS011;9132;47.946;10.394;2024-02-21T13:18:55;1.47;;;0.30;;
18013;SDS011;9132;47.946;10.394;2024-02-21T13:21:22;0.50;;;0.33;;
18013;SDS011;9132;47.946;10.394;2024-02-21T13:23:49;1.07;;;0.40;;
18013;SDS011;9132;47.946;10.394;2024-02-21T13:26:16;1.10;;;0.33;;
18013;SDS011;9132;47.946;10.394;2024-02-21T13:28:43;0.80;;;0.50;;
18013;SDS011;9132;47.946;10.394;2024-02-21T13:31:10;1.17;;;0.50;;
18013;SDS011;9132;47.946;10.394;2024-02-21T13:33:37;0.33;;;0.30;;
18013;SDS011;9132;47.946;10.394;2024-02-21T13:36:04;0.80;;;0.50;;
18013;SDS011;9132;47.946;10.394;2024-02-21T13:38:31;1.43;;;0.53;;
18013;SDS011;9132;47.946;10.394;2024-02-21T13:40:57;1.03;;;0.50;;
18013;SDS011;9132;47.946;10.394;2024-02-21T13:43:26;0.63;;;0.50;;
18013;SDS011;9132;47.946;10.394;2024-02-21T13:45:55;0.30;;;0.30;;
18013;SDS011;9132;47.946;10.394;2024-02-21T13:48:22;0.73;;;0.50;;
18013;SDS011;9132;47.946;10.394;2024-02-21T13:50:49;1.40;;;0.40;;
18013;SDS011;9132;47.946;10.394;2024-02-21T13:53:16;1.13;;;0.40;;
18013;SDS011;9132;47.946;10.394;2024-02-21T13:55:43;1.47;;;0.40;;
18013;SDS011;9132;47.946;10.394;2024-02-21T13:58:10;1.33;;;0.40;;
18013;SDS011;9132;47.946;10.394;2024-02-21T14:00:38;2.20;;;0.60;;
18013;SDS011;9132;47.946;10.394;2024-02-21T14:03:04;0.40;;;0.40;;
18013;SDS011;9132;47.946;10.394;2024-02-21T14:05:31;0.60;;;0.40;;
18013;SDS011;9132;47.946;10.394;2024-02-21T14:07:57;0.43;;;0.43;;
18013;SDS011;9132;47.946;10.394;2024-02-21T14:10:24;0.70;;;0.60;;
18013;SDS011;9132;47.946;10.394;2024-02-21T14:12:51;3.03;;;0.80;;
18013;SDS011;9132;47.946;10.394;2024-02-21T14:15:17;0.80;;;0.60;;
18013;SDS011;9132;47.946;10.394;2024-02-21T14:17:45;0.20;;;0.20;;
18013;SDS011;9132;47.946;10.394;2024-02-21T14:20:12;0.93;;;0.80;;
18013;SDS011;9132;47.946;10.394;2024-02-21T14:22:40;2.33;;;1.70;;
18013;SDS011;9132;47.946;10.394;2024-02-21T14:25:07;0.40;;;0.40;;
18013;SDS011;9132;47.946;10.394;2024-02-21T14:27:34;1.20;;;0.70;;
18013;SDS011;9132;47.946;10.394;2024-02-21T14:30:01;0.73;;;0.53;;
18013;SDS011;9132;47.946;10.394;2024-02-21T14:32:28;1.80;;;0.60;;
18013;SDS011;9132;47.946;10.394;2024-02-21T14:34:56;1.17;;;0.90;;
18013;SDS011;9132;47.946;10.394;2024-02-21T14:37:23;1.77;;;0.87;;
18013;SDS011;9132;47.946;10.394;2024-02-21T14:39:49;7.97;;;4.93;;
18013;SDS011;9132;47.946;10.394;2024-02-21T14:42:16;1.83;;;1.20;;
18013;SDS011;9132;47.946;10.394;2024-02-21T14:44:43;1.50;;;1.40;;
18013;SDS011;9132;47.946;10.394;2024-02-21T14:47:10;1.60;;;1.10;;
18013;SDS011;9132;47.946;10.394;2024-02-21T14:49:36;14.27;;;2.10;;